Terminal Aerodrome Forecast
Issued by NWS

Home | Current Version | Previous Version | Text Only | Print | Product List | Glossary On
Versions: 1 2 3 4 5 6 7 8 9 10 11 12 13 14 15 16 17 18 19 20 21 22 23 24 25 26 27 28 29 30 31 32 33
269
FTUS41 KOKX 062343
TAFTEB
TAF
KTEB 062343Z 0700/0724 08006KT 2SM -DZ BR OVC005
     FM071500 06005KT 5SM BR OVC010
     FM071800 10005KT P6SM BKN015
     FM072100 13005KT P6SM BKN025=

USA.gov is the U.S. government's official web portal to all federal, state and local government web resources and services.